Time;durP1;ratioP1;P1;durP2;ratioP2;P2;SDS_P1;SDS_P2;PMS_P1;PMS_P2;Temp;Humidity;BMP_temperature;BMP_pressure;BME280_temperature;BME280_humidity;BME280_pressure;Samples;Min_cycle;Max_cycle;Signal;HPM_P1;HPM_P2
2021/07/18 00:01:29;;;;;;;1.67;1.57;;;18.50;99.90;18.50;96553.00;;;;5103807;28;20206;-66
2021/07/18 00:04:18;;;;;;;2.20;1.60;;;18.60;99.90;18.50;96550.00;;;;5093195;28;20281;-66
2021/07/18 00:07:07;;;;;;;3.20;2.07;;;18.60;99.90;18.50;96553.00;;;;5100877;28;20202;-66
2021/07/18 00:09:56;;;;;;;2.10;1.90;;;18.60;99.90;18.50;96559.00;;;;5078766;28;20698;-66
2021/07/18 00:12:46;;;;;;;3.87;2.17;;;18.60;99.90;18.40;96549.00;;;;5083683;28;20218;-66
2021/07/18 00:15:35;;;;;;;1.50;1.37;;;18.60;99.90;18.40;96564.00;;;;5070856;28;20195;-67
2021/07/18 00:18:24;;;;;;;1.93;1.70;;;18.60;99.90;18.40;96564.00;;;;5103977;28;20199;-65
2021/07/18 00:21:13;;;;;;;4.17;2.03;;;18.60;99.90;18.40;96556.00;;;;5102611;28;20217;-66
2021/07/18 00:24:04;;;;;;;2.43;1.73;;;18.60;99.90;18.40;96553.00;;;;5092587;28;20209;-66
2021/07/18 00:26:52;;;;;;;3.73;2.07;;;18.60;99.90;18.40;96547.00;;;;5104167;28;20618;-67
2021/07/18 00:29:44;;;;;;;5.23;1.83;;;18.50;99.90;18.20;96553.00;;;;5103868;28;20226;-67
2021/07/18 00:32:32;;;;;;;2.93;1.80;;;18.60;99.90;18.20;96543.00;;;;5104668;28;20860;-67
2021/07/18 00:35:21;;;;;;;2.30;2.10;;;18.50;99.90;18.20;96548.00;;;;5092951;28;20199;-68
2021/07/18 00:38:10;;;;;;;1.53;1.43;;;18.40;99.90;18.10;96551.00;;;;5103915;28;20206;-67
2021/07/18 00:40:59;;;;;;;1.53;1.43;;;18.40;99.90;18.00;96547.00;;;;5103842;28;20206;-67
2021/07/18 00:43:48;;;;;;;2.17;1.97;;;18.30;99.90;17.90;96547.00;;;;5108309;28;20594;-68
2021/07/18 00:46:39;;;;;;;1.87;1.70;;;18.30;99.90;17.90;96557.00;;;;5106372;28;20689;-67
2021/07/18 00:49:27;;;;;;;1.63;1.53;;;18.40;99.90;17.90;96553.00;;;;5107258;28;20762;-67
2021/07/18 00:52:16;;;;;;;2.43;1.83;;;18.20;99.90;17.90;96553.00;;;;5106213;28;20236;-68
2021/07/18 00:55:07;;;;;;;2.60;1.50;;;18.10;99.90;17.80;96549.00;;;;5106470;28;20612;-67
2021/07/18 00:57:56;;;;;;;2.60;2.13;;;18.10;99.90;17.90;96547.00;;;;5107377;28;20209;-68
2021/07/18 01:00:45;;;;;;;2.07;1.30;;;18.10;99.90;17.70;96546.00;;;;5105123;28;20202;-67
2021/07/18 01:03:35;;;;;;;2.53;1.70;;;18.10;99.90;17.70;96546.00;;;;5093677;28;20234;-67
2021/07/18 01:06:25;;;;;;;2.60;2.07;;;18.00;99.90;17.60;96546.00;;;;5086298;28;20199;-67
2021/07/18 01:09:14;;;;;;;2.43;1.60;;;18.00;99.90;17.50;96549.00;;;;5077024;28;20363;-69
2021/07/18 01:12:05;;;;;;;1.60;1.50;;;17.90;99.90;17.60;96535.00;;;;5087254;28;20234;-67
2021/07/18 01:14:54;;;;;;;2.00;1.80;;;17.90;99.90;17.60;96545.00;;;;5087576;28;20203;-67
2021/07/18 01:17:43;;;;;;;2.47;2.00;;;18.70;99.90;17.60;96534.00;;;;5107262;28;20255;-69
2021/07/18 01:20:34;;;;;;;1.77;1.67;;;17.90;99.90;17.70;96540.00;;;;5084968;28;20218;-67
2021/07/18 01:23:24;;;;;;;2.00;1.67;;;17.90;99.90;18.10;96541.00;;;;5085953;28;20303;-67
2021/07/18 01:26:13;;;;;;;4.53;1.60;;;17.90;99.90;18.20;96533.00;;;;5086639;28;20219;-68
2021/07/18 01:29:02;;;;;;;1.40;1.30;;;18.10;99.90;18.20;96548.00;;;;5095119;28;20215;-68
2021/07/18 01:31:51;;;;;;;2.17;1.70;;;18.10;99.90;18.30;96522.00;;;;5106067;28;20228;-67
2021/07/18 01:34:40;;;;;;;2.27;1.80;;;18.30;99.90;18.40;96533.00;;;;5106497;28;20194;-66
2021/07/18 01:37:29;;;;;;;5.07;1.63;;;18.30;99.90;18.40;96529.00;;;;5105351;28;20198;-66
2021/07/18 01:40:19;;;;;;;2.73;1.67;;;18.40;99.90;18.40;96527.00;;;;5104992;28;20733;-67
2021/07/18 01:43:09;;;;;;;2.53;1.63;;;18.40;99.90;18.40;96528.00;;;;5106286;28;20230;-67
2021/07/18 01:45:57;;;;;;;1.73;1.40;;;18.50;99.90;18.50;96526.00;;;;5105874;28;20202;-68
2021/07/18 01:48:52;;;;;;;2.53;1.50;;;18.20;99.90;18.50;96524.00;;;;5105600;28;20344;-67
2021/07/18 01:51:41;;;;;;;1.70;1.17;;;18.50;99.90;18.50;96525.00;;;;5105921;28;20199;-67
2021/07/18 01:54:30;;;;;;;2.43;1.57;;;18.60;99.90;18.40;96516.00;;;;5105229;28;20251;-67
2021/07/18 01:57:20;;;;;;;4.23;1.40;;;18.60;99.90;18.30;96525.00;;;;5084940;28;20199;-67
2021/07/18 02:00:14;;;;;;;1.57;1.40;;;18.50;99.90;18.30;96514.00;;;;5085556;28;20660;-67
2021/07/18 02:03:03;;;;;;;1.97;1.70;;;18.50;99.90;18.40;96513.00;;;;5073947;28;20224;-67
2021/07/18 02:05:52;;;;;;;1.57;1.47;;;18.50;99.90;18.40;96505.00;;;;5075495;28;20209;-67
2021/07/18 02:08:41;;;;;;;3.43;1.80;;;18.50;99.90;18.40;96500.00;;;;5086557;28;20203;-67
2021/07/18 02:11:30;;;;;;;1.53;1.30;;;18.50;99.90;18.40;96496.00;;;;5084253;28;20209;-67
2021/07/18 02:14:22;;;;;;;4.10;1.73;;;18.50;99.90;18.40;96486.00;;;;5086511;28;20203;-66
2021/07/18 02:17:11;;;;;;;1.67;1.57;;;18.50;99.90;18.30;96485.00;;;;5104976;28;20194;-67
2021/07/18 02:20:00;;;;;;;3.73;2.00;;;18.50;99.90;18.30;96485.00;;;;5105078;28;20245;-67
2021/07/18 02:22:51;;;;;;;1.60;1.30;;;18.50;99.90;18.30;96483.00;;;;5106881;28;20642;-67
2021/07/18 02:25:40;;;;;;;2.23;2.03;;;18.50;99.90;18.40;96489.00;;;;5085559;28;20202;-67
2021/07/18 02:28:29;;;;;;;1.70;1.60;;;18.50;99.90;18.40;96489.00;;;;5105978;28;20236;-67
2021/07/18 02:31:20;;;;;;;2.47;1.97;;;18.50;99.90;18.40;96485.00;;;;5104245;28;20555;-67
2021/07/18 02:34:09;;;;;;;2.00;1.80;;;18.50;99.90;18.30;96485.00;;;;5084857;28;20208;-67
2021/07/18 02:36:58;;;;;;;2.37;1.67;;;18.50;99.90;18.40;96479.00;;;;5085756;28;20203;-67
2021/07/18 02:39:47;;;;;;;2.87;1.87;;;18.50;99.90;18.50;96489.00;;;;5084751;28;20210;-67
2021/07/18 02:42:36;;;;;;;3.23;1.97;;;18.50;99.90;18.50;96484.00;;;;5104289;28;20226;-67
2021/07/18 02:45:26;;;;;;;2.73;1.93;;;18.50;99.90;18.40;96487.00;;;;5104239;28;20207;-67
2021/07/18 02:48:16;;;;;;;3.53;1.97;;;18.60;99.90;18.30;96490.00;;;;5106171;28;20206;-67
2021/07/18 02:51:05;;;;;;;2.80;1.67;;;18.50;99.90;18.20;96494.00;;;;5104345;28;20225;-67
2021/07/18 02:53:55;;;;;;;3.83;1.80;;;18.50;99.90;18.10;96484.00;;;;5105757;28;20709;-67
2021/07/18 02:56:44;;;;;;;6.00;1.90;;;18.40;99.90;18.00;96488.00;;;;5105327;28;20206;-67
2021/07/18 02:59:33;;;;;;;2.57;2.37;;;18.40;99.90;18.00;96480.00;;;;5104998;28;20209;-67
2021/07/18 03:02:22;;;;;;;3.20;2.10;;;18.30;99.90;18.00;96484.00;;;;5097881;28;20610;-67
2021/07/18 03:05:13;;;;;;;5.03;2.90;;;18.30;99.90;18.00;96483.00;;;;5100012;28;20199;-67
2021/07/18 03:08:02;;;;;;;2.23;2.03;;;17.80;99.90;17.90;96477.00;;;;5105334;28;20217;-66
2021/07/18 03:10:52;;;;;;;2.93;2.63;;;18.20;99.90;17.80;96479.00;;;;5102866;28;20226;-67
2021/07/18 03:13:41;;;;;;;3.43;3.07;;;18.10;99.90;17.70;96479.00;;;;5103541;28;20218;-66
2021/07/18 03:16:30;;;;;;;2.40;2.20;;;18.10;99.90;17.70;96488.00;;;;5083656;28;20203;-67
2021/07/18 03:19:20;;;;;;;3.03;2.30;;;18.00;99.90;17.70;96478.00;;;;5085261;28;20203;-66
2021/07/18 03:22:10;;;;;;;2.27;2.03;;;18.00;99.90;17.70;96477.00;;;;5083678;28;20718;-66
2021/07/18 03:24:59;;;;;;;3.03;2.73;;;17.90;99.90;17.70;96490.00;;;;5084753;28;20211;-67
2021/07/18 03:27:48;;;;;;;2.47;2.27;;;18.00;99.90;17.70;96493.00;;;;5084756;28;20380;-67
2021/07/18 03:30:37;;;;;;;3.43;2.23;;;17.90;99.90;17.70;96493.00;;;;5101833;28;20218;-67
2021/07/18 03:33:26;;;;;;;5.07;2.83;;;17.90;99.90;17.80;96495.00;;;;5103488;28;20714;-67
2021/07/18 03:36:15;;;;;;;4.10;2.30;;;17.90;99.90;17.90;96498.00;;;;5083785;28;20214;-66
2021/07/18 03:39:06;;;;;;;4.73;3.30;;;17.90;99.90;18.00;96494.00;;;;5103085;28;20206;-66
2021/07/18 03:41:55;;;;;;;3.40;2.83;;;18.00;99.90;18.00;96489.00;;;;5083754;28;20726;-67
2021/07/18 03:44:44;;;;;;;3.47;2.97;;;18.10;99.90;18.00;96495.00;;;;5102594;28;20579;-67
2021/07/18 03:47:33;;;;;;;4.37;2.57;;;18.10;99.90;18.00;96498.00;;;;5083857;28;20207;-67
2021/07/18 03:50:22;;;;;;;6.27;3.47;;;18.10;99.90;18.10;96495.00;;;;5084096;28;20312;-67
2021/07/18 03:53:11;;;;;;;4.00;2.73;;;18.20;99.90;18.20;96488.00;;;;5065307;28;20227;-66
2021/07/18 03:56:02;;;;;;;3.40;3.10;;;18.20;99.90;18.50;96490.00;;;;5084479;28;20206;-68
2021/07/18 03:58:51;;;;;;;3.63;2.90;;;18.30;99.90;18.50;96487.00;;;;5103713;28;20209;-68
2021/07/18 04:01:39;;;;;;;3.10;2.80;;;18.50;99.90;18.80;96478.00;;;;5101893;28;20203;-68
2021/07/18 04:04:28;;;;;;;2.90;2.43;;;18.60;99.90;18.90;96479.00;;;;5094452;28;20198;-67
2021/07/18 04:07:17;;;;;;;2.83;2.43;;;18.70;99.90;19.00;96474.00;;;;5103523;28;20199;-69
2021/07/18 04:10:08;;;;;;;4.37;2.90;;;18.80;99.90;19.00;96475.00;;;;5103586;28;20223;-68
2021/07/18 04:12:59;;;;;;;3.07;2.77;;;18.90;99.90;19.10;96490.00;;;;5083800;28;20234;-67
2021/07/18 04:15:48;;;;;;;2.37;1.93;;;19.00;99.90;19.20;96490.00;;;;5084946;28;20207;-66
2021/07/18 04:18:37;;;;;;;2.30;2.10;;;19.10;99.90;19.30;96495.00;;;;5107659;28;20198;-66
2021/07/18 04:21:26;;;;;;;2.20;2.10;;;19.20;99.90;19.30;96499.00;;;;5086432;28;20206;-65
2021/07/18 04:24:15;;;;;;;2.23;2.03;;;19.30;99.90;19.30;96496.00;;;;5088581;28;20206;-66
2021/07/18 04:27:05;;;;;;;3.67;2.57;;;19.30;99.90;19.30;96480.00;;;;5107175;28;20207;-65
2021/07/18 04:29:55;;;;;;;3.77;2.33;;;19.40;99.90;19.30;96489.00;;;;5108002;28;20205;-66
2021/07/18 04:32:44;;;;;;;2.90;2.30;;;19.30;99.90;19.30;96490.00;;;;5108157;28;20583;-65
2021/07/18 04:35:33;;;;;;;2.73;1.93;;;19.40;99.90;19.30;96499.00;;;;5087353;28;20209;-65
2021/07/18 04:38:22;;;;;;;2.37;2.17;;;19.40;99.90;19.30;96491.00;;;;5108264;28;20481;-66
2021/07/18 04:41:11;;;;;;;2.27;2.07;;;19.40;99.90;19.30;96486.00;;;;5091456;28;20198;-65
2021/07/18 04:44:00;;;;;;;2.90;2.60;;;19.40;99.90;19.30;96491.00;;;;5108404;28;20214;-66
2021/07/18 04:46:54;;;;;;;7.97;3.37;;;18.60;99.90;19.30;96506.00;;;;5096747;28;20221;-65
2021/07/18 04:49:43;;;;;;;3.33;2.70;;;19.40;99.90;19.30;96492.00;;;;5106589;28;20203;-65
2021/07/18 04:52:32;;;;;;;9.93;2.90;;;19.40;99.90;19.40;96494.00;;;;5106658;28;20227;-66
2021/07/18 04:55:22;;;;;;;3.17;2.87;;;19.40;99.90;19.50;96497.00;;;;5106030;28;20688;-65
2021/07/18 04:58:10;;;;;;;3.97;2.63;;;19.50;99.90;19.70;96498.00;;;;5107710;28;20338;-65
2021/07/18 05:00:59;;;;;;;3.63;2.80;;;19.60;99.90;19.80;96502.00;;;;5107147;28;20217;-65
2021/07/18 05:03:50;;;;;;;3.73;3.20;;;19.70;99.90;19.70;96494.00;;;;5093075;28;20222;-65
2021/07/18 05:06:39;;;;;;;2.87;2.40;;;19.70;99.90;19.70;96499.00;;;;5106996;28;20745;-65
2021/07/18 05:09:28;;;;;;;4.00;2.90;;;19.70;99.90;19.70;96500.00;;;;5096820;28;20213;-65
2021/07/18 05:12:17;;;;;;;5.77;3.33;;;19.80;99.90;19.80;96496.00;;;;5107414;28;20723;-65
2021/07/18 05:15:07;;;;;;;4.57;2.10;;;19.80;99.90;20.00;96508.00;;;;5107661;28;20682;-65
2021/07/18 05:17:58;;;;;;;8.97;3.03;;;19.80;99.90;20.20;96503.00;;;;5107963;28;20202;-65
2021/07/18 05:20:48;;;;;;;3.03;2.77;;;20.00;99.90;20.30;96514.00;;;;5106884;28;20206;-65
2021/07/18 05:23:37;;;;;;;2.83;2.50;;;20.10;99.90;20.40;96519.00;;;;5107978;28;20300;-65
2021/07/18 05:26:26;;;;;;;3.30;3.00;;;20.20;99.90;20.70;96516.00;;;;5105741;28;20198;-65
2021/07/18 05:29:15;;;;;;;5.00;3.13;;;20.40;99.90;20.90;96525.00;;;;5106026;28;20618;-66
2021/07/18 05:32:05;;;;;;;2.97;2.50;;;20.50;99.90;20.90;96522.00;;;;5106404;28;20230;-66
2021/07/18 05:34:54;;;;;;;3.80;2.83;;;20.70;99.90;20.90;96532.00;;;;5106930;28;20210;-66
2021/07/18 05:37:44;;;;;;;3.40;2.87;;;20.70;99.90;21.00;96520.00;;;;5106751;28;20195;-66
2021/07/18 05:40:34;;;;;;;3.17;2.87;;;20.90;99.90;21.00;96529.00;;;;5106152;28;20212;-66
2021/07/18 05:43:22;;;;;;;2.67;2.47;;;21.00;99.90;21.10;96532.00;;;;5107107;28;20221;-66
2021/07/18 05:46:11;;;;;;;3.20;2.90;;;21.10;99.90;21.40;96511.00;;;;5106507;28;20208;-65
2021/07/18 05:49:00;;;;;;;5.33;2.57;;;21.20;99.90;21.70;96518.00;;;;5106697;28;20688;-66
2021/07/18 05:51:49;;;;;;;3.67;2.93;;;21.40;99.90;21.90;96513.00;;;;5092720;28;20245;-64
2021/07/18 05:54:39;;;;;;;4.00;3.20;;;21.50;99.90;22.10;96513.00;;;;5087133;28;20211;-64
2021/07/18 05:57:28;;;;;;;3.53;3.10;;;21.70;99.90;22.20;96514.00;;;;5086472;28;20214;-64
2021/07/18 06:00:18;;;;;;;3.43;2.43;;;21.90;99.90;22.10;96504.00;;;;5086391;28;20241;-64
2021/07/18 06:03:07;;;;;;;3.07;2.70;;;22.10;99.90;22.30;96516.00;;;;5067195;28;20228;-64
2021/07/18 06:05:56;;;;;;;4.17;2.90;;;22.10;99.90;22.40;96510.00;;;;5075347;28;20581;-65
2021/07/18 06:08:45;;;;;;;3.60;2.63;;;22.30;99.90;22.40;96501.00;;;;5085923;28;20207;-65
2021/07/18 06:11:35;;;;;;;3.40;3.10;;;22.30;99.90;22.60;96502.00;;;;5084599;28;20230;-66
2021/07/18 06:14:24;;;;;;;2.93;2.53;;;22.40;99.90;22.70;96520.00;;;;5086425;28;20210;-67
2021/07/18 06:17:13;;;;;;;3.67;3.23;;;22.50;99.90;22.80;96519.00;;;;5078078;28;20222;-65
2021/07/18 06:20:02;;;;;;;4.30;3.90;;;22.60;99.90;22.80;96528.00;;;;5103579;28;20207;-65
2021/07/18 06:22:52;;;;;;;4.17;3.77;;;22.70;99.90;23.00;96518.00;;;;5101764;28;20211;-66
2021/07/18 06:25:41;;;;;;;4.50;3.97;;;22.80;99.90;23.00;96526.00;;;;5102442;28;20665;-65
2021/07/18 06:28:31;;;;;;;4.07;3.17;;;22.90;99.90;23.00;96518.00;;;;5084605;28;20199;-66
2021/07/18 06:31:20;;;;;;;4.63;3.83;;;23.00;99.90;23.20;96521.00;;;;5080425;28;20227;-66
2021/07/18 06:34:09;;;;;;;4.87;3.43;;;23.00;99.90;23.30;96522.00;;;;5068998;28;20203;-65
2021/07/18 06:36:58;;;;;;;3.47;3.17;;;23.20;99.90;23.40;96517.00;;;;5086164;28;20226;-67
2021/07/18 06:39:47;;;;;;;3.40;3.10;;;23.20;99.90;23.50;96513.00;;;;5076631;28;20203;-67
2021/07/18 06:42:36;;;;;;;3.57;3.17;;;23.30;99.90;23.00;96514.00;;;;5082289;28;20226;-66
2021/07/18 06:45:27;;;;;;;4.17;3.77;;;23.40;99.90;23.30;96511.00;;;;5083279;28;20214;-66
2021/07/18 06:48:18;;;;;;;3.63;3.33;;;23.40;99.90;23.50;96523.00;;;;5082405;28;20830;-66
2021/07/18 06:51:07;;;;;;;5.20;4.17;;;23.40;99.90;23.30;96528.00;;;;5078488;28;20192;-67
2021/07/18 06:53:56;;;;;;;4.60;3.50;;;23.40;99.90;23.60;96523.00;;;;5084255;28;20206;-67
2021/07/18 06:56:48;;;;;;;3.90;3.50;;;23.50;99.90;23.80;96513.00;;;;5084454;28;20203;-66
2021/07/18 06:59:37;;;;;;;4.93;3.70;;;23.60;99.90;23.80;96516.00;;;;5085010;28;20195;-66
2021/07/18 07:02:28;;;;;;;4.13;3.67;;;23.70;99.90;23.80;96530.00;;;;5077583;28;20232;-66
2021/07/18 07:05:17;;;;;;;4.37;3.97;;;23.80;99.90;23.90;96517.00;;;;5080270;28;20206;-67
2021/07/18 07:08:07;;;;;;;3.67;3.37;;;23.80;99.90;24.20;96522.00;;;;5101950;28;20267;-66
2021/07/18 07:10:56;;;;;;;4.33;3.93;;;23.90;99.90;24.40;96530.00;;;;5099355;28;20670;-65
2021/07/18 07:13:45;;;;;;;4.77;4.37;;;23.50;99.90;24.60;96524.00;;;;5103252;28;20659;-66
2021/07/18 07:16:35;;;;;;;3.70;3.40;;;24.20;99.90;24.80;96530.00;;;;5102965;28;20224;-65
2021/07/18 07:19:25;;;;;;;4.00;3.60;;;24.40;99.90;24.70;96519.00;;;;5102416;28;20209;-65
2021/07/18 07:22:14;;;;;;;5.10;4.30;;;24.50;99.90;24.60;96534.00;;;;5102447;28;20215;-66
2021/07/18 07:25:04;;;;;;;4.20;3.87;;;24.50;99.90;24.60;96524.00;;;;5086872;28;20208;-66
2021/07/18 07:27:54;;;;;;;5.20;4.20;;;24.90;99.90;25.00;96521.00;;;;5103814;28;20206;-65
2021/07/18 07:30:43;;;;;;;4.90;4.43;;;24.60;99.90;25.10;96525.00;;;;5104382;28;20293;-66
2021/07/18 07:33:33;;;;;;;5.30;4.57;;;24.80;99.90;25.40;96514.00;;;;5105713;28;20227;-65
2021/07/18 07:36:23;;;;;;;6.57;5.60;;;24.90;99.90;25.40;96539.00;;;;5104216;28;20276;-65
2021/07/18 07:39:12;;;;;;;6.63;4.37;;;25.10;99.90;25.30;96543.00;;;;5105457;28;20196;-65
2021/07/18 07:42:01;;;;;;;4.83;4.33;;;25.20;99.90;24.90;96508.00;;;;5103424;28;20212;-65
2021/07/18 07:44:52;;;;;;;5.30;4.77;;;25.10;99.90;25.30;96519.00;;;;5094461;28;20209;-65
2021/07/18 07:47:43;;;;;;;6.93;4.53;;;25.20;99.90;25.60;96526.00;;;;5103985;28;20656;-64
2021/07/18 07:50:32;;;;;;;5.23;4.70;;;25.30;99.90;25.70;96529.00;;;;5104651;28;20253;-66
2021/07/18 07:53:22;;;;;;;7.37;5.30;;;25.40;99.90;25.90;96520.00;;;;5110459;27;20239;-66
2021/07/18 07:56:11;;;;;;;5.27;4.77;;;25.50;99.90;25.90;96525.00;;;;5110284;28;20201;-65
2021/07/18 07:59:00;;;;;;;5.77;5.20;;;25.70;99.90;25.80;96523.00;;;;5100797;28;20204;-66
2021/07/18 08:01:49;;;;;;;5.37;4.43;;;25.80;99.90;26.10;96528.00;;;;5102689;28;20226;-66
2021/07/18 08:04:38;;;;;;;5.60;5.10;;;25.80;99.90;26.40;96525.00;;;;5105050;28;20195;-66
2021/07/18 08:07:27;;;;;;;5.33;4.80;;;26.00;99.90;26.70;96518.00;;;;5110914;28;20217;-64
2021/07/18 08:10:20;;;;;;;6.30;4.93;;;26.20;99.90;26.70;96518.00;;;;5109802;28;20204;-66
2021/07/18 08:13:09;;;;;;;5.13;4.63;;;26.40;99.90;26.30;96530.00;;;;5111470;28;20218;-66
2021/07/18 08:15:58;;;;;;;6.33;4.77;;;26.40;99.90;26.50;96529.00;;;;5109925;28;20199;-67
2021/07/18 08:18:47;;;;;;;5.80;5.30;;;26.50;99.90;26.20;96527.00;;;;5111420;28;20209;-67
2021/07/18 08:21:36;;;;;;;6.20;5.60;;;26.40;99.90;26.30;96526.00;;;;5109919;28;20207;-66
2021/07/18 08:24:29;;;;;;;6.00;4.80;;;26.40;99.90;26.10;96534.00;;;;5111645;28;20235;-67
2021/07/18 08:27:19;;;;;;;6.77;5.37;;;26.30;99.90;26.30;96553.00;;;;5110454;28;20214;-66
2021/07/18 08:30:10;;;;;;;7.27;5.57;;;26.30;99.90;25.70;96556.00;;;;5110851;28;20203;-66
2021/07/18 08:32:59;;;;;;;5.30;4.80;;;26.10;99.90;25.60;96549.00;;;;5110789;28;20233;-67
2021/07/18 08:35:48;;;;;;;6.37;5.77;;;25.90;99.90;25.50;96553.00;;;;5110424;28;20207;-67
2021/07/18 08:38:37;;;;;;;6.50;5.57;;;25.80;99.90;25.60;96548.00;;;;5110153;28;20197;-67
2021/07/18 08:41:27;;;;;;;6.93;5.43;;;25.70;99.90;25.90;96523.00;;;;5109750;28;20215;-67
2021/07/18 08:44:17;;;;;;;6.63;5.27;;;25.80;99.90;26.50;96528.00;;;;5111520;28;20216;-65
2021/07/18 08:47:07;;;;;;;6.60;5.97;;;26.00;99.90;26.30;96545.00;;;;5110638;28;20205;-65
2021/07/18 08:49:56;;;;;;;6.30;5.70;;;26.10;99.90;26.10;96541.00;;;;5111077;28;20203;-66
2021/07/18 08:52:52;;;;;;;5.37;4.77;;;26.10;99.90;26.50;96528.00;;;;5098185;28;20239;-66
2021/07/18 08:55:42;;;;;;;5.53;5.00;;;26.20;99.90;27.00;96510.00;;;;5110998;28;20948;-66
2021/07/18 08:58:30;;;;;;;5.63;5.13;;;26.40;99.90;27.30;96505.00;;;;5108210;28;20278;-64
2021/07/18 09:01:21;;;;;;;5.47;4.97;;;26.60;99.90;27.70;96523.00;;;;5105458;28;20627;-66
2021/07/18 09:04:10;;;;;;;5.77;4.40;;;26.90;99.90;27.20;96506.00;;;;5094681;28;20204;-67
2021/07/18 09:07:07;;;;;;;5.63;4.73;;;27.00;99.90;27.90;96511.00;;;;5106028;28;20207;-66
2021/07/18 09:10:05;;;;;;;6.87;4.77;;;27.30;99.90;27.30;96509.00;;;;5104092;28;20205;-66
2021/07/18 09:13:06;;;;;;;5.47;4.97;;;27.30;98.40;26.90;96508.00;;;;5106175;28;20229;-67
2021/07/18 09:15:56;;;;;;;5.83;5.33;;;27.40;97.60;27.70;96507.00;;;;5100877;28;20576;-67
2021/07/18 09:18:46;;;;;;;5.50;5.00;;;27.50;98.60;26.90;96506.00;;;;5101560;28;20233;-66
2021/07/18 09:21:35;;;;;;;6.53;5.17;;;27.30;97.10;27.00;96511.00;;;;5103066;28;20205;-66
2021/07/18 09:24:27;;;;;;;7.50;5.20;;;27.30;97.30;27.80;96521.00;;;;5103543;28;20204;-66
2021/07/18 09:27:21;;;;;;;5.80;5.07;;;27.40;99.40;27.90;96510.00;;;;5106382;28;20213;-64
2021/07/18 09:30:12;;;;;;;5.30;4.90;;;27.60;97.70;28.40;96520.00;;;;5096330;28;20681;-64
2021/07/18 09:33:01;;;;;;;4.90;4.50;;;27.80;98.30;27.70;96510.00;;;;5105414;28;20236;-66
2021/07/18 09:35:51;;;;;;;5.47;4.97;;;27.80;97.10;27.80;96529.00;;;;5106211;28;20197;-66
2021/07/18 09:38:41;;;;;;;6.07;5.43;;;27.90;96.50;28.00;96514.00;;;;5106183;28;20205;-66
2021/07/18 09:41:36;;;;;;;6.83;4.73;;;27.90;95.50;28.20;96513.00;;;;5093769;28;20577;-66
2021/07/18 09:44:25;;;;;;;5.70;4.47;;;28.00;96.00;27.80;96519.00;;;;5107559;28;20217;-67
2021/07/18 09:47:14;;;;;;;5.57;4.77;;;28.00;94.40;28.70;96532.00;;;;5104598;28;20198;-66
2021/07/18 09:50:03;;;;;;;6.77;5.10;;;28.20;96.30;27.80;96514.00;;;;5098061;28;20857;-67
2021/07/18 09:53:10;;;;;;;5.20;4.70;;;28.20;93.40;27.80;96511.00;;;;5105295;28;20241;-67
2021/07/18 09:56:02;;;;;;;8.90;5.60;;;28.20;92.80;28.30;96502.00;;;;5106508;28;20249;-67
2021/07/18 09:58:56;;;;;;;7.83;5.60;;;28.20;94.80;29.20;96512.00;;;;5106034;28;20205;-67
2021/07/18 10:01:54;;;;;;;4.80;4.33;;;28.40;94.70;28.70;96518.00;;;;5097867;28;20197;-65
2021/07/18 10:04:43;;;;;;;5.70;5.20;;;28.70;92.90;29.10;96519.00;;;;5098527;28;20555;-66
2021/07/18 10:07:35;;;;;;;7.00;5.33;;;28.80;93.40;29.00;96514.00;;;;5104918;28;20881;-64
2021/07/18 10:10:25;;;;;;;5.83;5.10;;;28.80;92.30;28.90;96510.00;;;;5104769;28;20221;-66
2021/07/18 10:13:14;;;;;;;6.63;5.30;;;28.90;90.60;29.10;96521.00;;;;5106088;28;20223;-65
2021/07/18 10:16:04;;;;;;;6.13;5.63;;;28.90;90.80;29.50;96526.00;;;;5091551;28;20203;-65
2021/07/18 10:18:55;;;;;;;7.13;5.40;;;28.70;91.10;28.60;96530.00;;;;5101647;28;20198;-66
2021/07/18 10:21:44;;;;;;;7.57;5.73;;;28.90;90.40;28.80;96528.00;;;;5107217;27;20208;-66
2021/07/18 10:24:35;;;;;;;5.93;5.30;;;28.90;90.50;28.90;96523.00;;;;5105572;27;20701;-66
2021/07/18 10:27:25;;;;;;;5.60;5.00;;;28.90;90.50;28.70;96531.00;;;;5105278;28;20194;-66
2021/07/18 10:30:16;;;;;;;7.77;5.80;;;28.90;90.60;29.30;96540.00;;;;5105544;28;20216;-66
2021/07/18 10:33:06;;;;;;;6.60;5.63;;;29.00;90.70;28.10;96523.00;;;;5104571;28;20230;-67
2021/07/18 10:35:56;;;;;;;5.17;4.67;;;28.90;87.70;28.90;96538.00;;;;5103378;28;20199;-66
2021/07/18 10:38:45;;;;;;;6.30;5.67;;;28.80;90.20;29.50;96529.00;;;;5105169;28;20199;-66
2021/07/18 10:41:44;;;;;;;6.30;5.80;;;29.00;89.30;30.00;96528.00;;;;5103922;28;20206;-67
2021/07/18 10:44:45;;;;;;;5.37;4.87;;;29.30;90.70;30.20;96521.00;;;;5104959;28;20685;-66
2021/07/18 10:48:05;;;;;;;5.60;5.13;;;29.60;89.00;30.20;96509.00;;;;5102826;28;20250;-68
2021/07/18 10:50:59;;;;;;;6.77;6.17;;;29.80;89.00;30.30;96512.00;;;;5075451;28;20589;-67
2021/07/18 10:53:51;;;;;;;8.27;6.63;;;30.00;87.70;30.20;96495.00;;;;5079617;28;20221;-67
2021/07/18 10:56:45;;;;;;;6.70;5.93;;;30.00;87.10;29.50;96486.00;;;;5071857;28;20228;-69
2021/07/18 10:59:36;;;;;;;6.63;6.05;;;29.90;83.60;29.60;96495.00;;;;5086755;28;20204;-66
2021/07/18 11:02:34;;;;;;;7.57;5.70;;;30.00;82.80;29.40;96485.00;;;;5079461;28;20606;-66
2021/07/18 11:05:43;;;;;;;5.38;4.88;;;29.90;82.00;29.60;96472.00;;;;5082694;28;20209;-66
2021/07/18 11:09:16;;;;;;;7.37;5.57;;;29.90;85.30;30.60;96469.00;;;;5081288;28;20211;-67
2021/07/18 11:12:23;;;;;;;7.27;5.43;;;30.00;83.70;30.70;96472.00;;;;5076886;28;20228;-66
2021/07/18 11:15:38;;;;;;;6.45;4.78;;;30.20;80.80;31.10;96470.00;;;;5078915;28;20248;-66
2021/07/18 11:18:37;;;;;;;6.00;5.40;;;30.40;80.90;31.10;96462.00;;;;5078172;28;20202;-69
2021/07/18 11:21:49;;;;;;;6.53;5.93;;;30.60;78.70;30.70;96454.00;;;;5076563;28;20213;-69
2021/07/18 11:24:49;;;;;;;6.72;6.03;;;30.70;78.30;31.60;96487.00;;;;5080610;28;20610;-69
2021/07/18 11:27:47;;;;;;;5.90;5.40;;;30.90;80.30;31.30;96453.00;;;;5084439;28;20204;-71
2021/07/18 11:30:39;;;;;;;5.72;5.10;;;31.00;76.50;31.30;96441.00;;;;5084154;28;20523;-67
2021/07/18 11:33:28;;;;;;;8.18;5.20;;;31.20;75.60;31.10;96440.00;;;;5084448;28;20314;-66
2021/07/18 11:36:21;;;;;;;6.47;5.88;;;31.20;75.70;31.60;96435.00;;;;5084111;28;20209;-67
2021/07/18 11:39:16;;;;;;;6.68;5.43;;;31.30;75.40;31.50;96432.00;;;;5085241;28;20208;-68
2021/07/18 11:42:12;;;;;;;8.98;5.80;;;31.50;74.50;31.60;96431.00;;;;5085713;28;20701;-66
2021/07/18 11:45:01;;;;;;;5.88;5.22;;;31.60;73.10;31.30;96429.00;;;;5085245;28;20204;-69
2021/07/18 11:47:51;;;;;;;7.57;5.28;;;31.40;71.90;30.10;96463.00;;;;5084798;28;20206;-66
2021/07/18 11:50:40;;;;;;;8.05;6.10;;;31.10;72.40;29.50;96457.00;;;;5084579;28;20584;-68
2021/07/18 11:53:31;;;;;;;5.85;5.35;;;30.50;73.20;29.40;96465.00;;;;5079963;28;20694;-66
2021/07/18 11:56:25;;;;;;;6.00;5.38;;;30.10;73.90;29.10;96467.00;;;;5083263;28;20202;-69
2021/07/18 11:59:16;;;;;;;6.18;5.22;;;29.70;73.90;28.70;96449.00;;;;5083501;28;20217;-67
2021/07/18 12:02:07;;;;;;;7.35;4.93;;;29.40;76.30;29.00;96458.00;;;;5082316;28;20226;-67
2021/07/18 12:05:07;;;;;;;9.88;5.88;;;29.10;75.80;29.10;96448.00;;;;5082016;28;20437;-67
2021/07/18 12:08:05;;;;;;;13.38;6.28;;;29.20;77.00;28.90;96454.00;;;;5084105;28;20205;-67
2021/07/18 12:11:04;;;;;;;6.15;5.65;;;29.20;76.10;29.30;96475.00;;;;5082550;28;20261;-67
2021/07/18 12:13:53;;;;;;;5.78;5.28;;;29.10;77.80;29.00;96466.00;;;;5082294;28;20247;-69
2021/07/18 12:16:44;;;;;;;6.90;6.10;;;29.20;79.20;29.20;96473.00;;;;5083755;28;20220;-68
2021/07/18 12:19:35;;;;;;;7.30;5.40;;;29.20;77.20;28.50;96466.00;;;;5083081;28;20216;-68
2021/07/18 12:22:25;;;;;;;5.50;5.00;;;29.10;76.50;28.50;96457.00;;;;5065558;28;20619;-68
2021/07/18 12:25:19;;;;;;;6.00;5.20;;;29.00;76.00;29.10;96452.00;;;;5063592;28;20198;-68
2021/07/18 12:28:10;;;;;;;6.13;5.40;;;29.10;77.50;29.60;96453.00;;;;5064175;28;20669;-68
2021/07/18 12:31:06;;;;;;;6.15;5.35;;;29.20;78.30;29.90;96432.00;;;;5055383;28;20669;-67
2021/07/18 12:33:55;;;;;;;5.35;4.85;;;29.40;76.90;30.40;96463.00;;;;5059121;28;20328;-68
2021/07/18 12:37:02;;;;;;;7.53;5.55;;;29.70;77.10;30.80;96432.00;;;;5050713;28;20217;-68
2021/07/18 12:39:53;;;;;;;6.55;5.95;;;30.00;78.40;31.20;96426.00;;;;5067692;28;20574;-67